Urb Olivencia, Puerto Rico
Current Conditions -  °F | °C
As of 11:50 AM on Saturday 25 Oct 2014 (Local Time) from TJBQ Reporting Station
Scattered Clouds Scattered Clouds  
Wind Chill: 86°   Ceiling: Unl
Heat Index: 93°   Visibility: 10mi
Dew Point: 73°   Wind: 5mph
Humidity: 66%   Direction: 360°N
Pressure: 29.92"   Gusts: NA
Location:  18.3413°N, 66.991°W
Report Text: TJBQ 251550Z 36004KT 10SM SCT030 30/23 A2992 RMK RWY08 - ATIS T
Loading
Personal Weather Stations






























Interactive Weather Map
Tropical Storm Tracking
New forecast layout! Learn more

10-Day Weather Forecast

Advertisements
Track Severe Weather on mobile